createdAt,value
2022-08-09T00:00:00.176Z,68.35
2022-08-09T00:02:28.088Z,68.71
2022-08-09T00:05:03.654Z,69.07
2022-08-09T00:07:44.946Z,69.44
2022-08-09T00:10:14.412Z,69.71
2022-08-09T00:12:47.527Z,70.66
2022-08-09T00:15:19.026Z,70.86
2022-08-09T00:18:05.565Z,70.78
2022-08-09T00:20:32.413Z,71.72
2022-08-09T00:23:04.891Z,71.90
2022-08-09T00:25:51.649Z,72.04
2022-08-09T00:28:19.314Z,72.08
2022-08-09T00:30:50.563Z,72.49
2022-08-09T00:33:17.167Z,72.06
2022-08-09T00:35:44.073Z,72.39
2022-08-09T00:38:12.622Z,73.07
2022-08-09T00:40:52.735Z,73.49
2022-08-09T00:44:18.855Z,73.58
2022-08-09T00:46:10.963Z,73.42
2022-08-09T00:48:41.249Z,73.55
2022-08-09T00:51:16.667Z,73.29
2022-08-09T00:53:46.491Z,72.92
2022-08-09T00:56:14.082Z,73.13
2022-08-09T00:58:40.682Z,73.32
2022-08-09T01:01:16.291Z,74.27
2022-08-09T01:03:50.243Z,74.23
2022-08-09T01:06:54.666Z,74.01
2022-08-09T01:09:39.426Z,74.29
2022-08-09T01:12:17.830Z,74.52
2022-08-09T01:14:53.110Z,74.40
2022-08-09T01:17:30.547Z,75.06
2022-08-09T01:20:10.437Z,75.39
2022-08-09T01:23:00.667Z,75.27
2022-08-09T01:25:48.789Z,75.58
2022-08-09T01:28:19.122Z,75.80
2022-08-09T01:30:52.138Z,74.90
2022-08-09T01:33:24.297Z,75.56
2022-08-09T01:36:02.631Z,75.51
2022-08-09T01:38:34.534Z,76.11
2022-08-09T01:41:13.667Z,76.31
2022-08-09T01:43:51.562Z,76.53
2022-08-09T01:46:27.109Z,76.52
2022-08-09T01:49:09.431Z,76.60
2022-08-09T01:51:42.766Z,76.90
2022-08-09T01:54:11.987Z,76.51
2022-08-09T01:56:41.745Z,77.26
2022-08-09T01:59:11.134Z,77.35
2022-08-09T02:02:00.135Z,77.98
2022-08-09T02:04:29.709Z,77.97
2022-08-09T02:07:17.759Z,78.39
2022-08-09T02:10:07.278Z,78.55
2022-08-09T02:12:35.576Z,78.57
2022-08-09T02:15:06.317Z,79.10
2022-08-09T02:18:10.007Z,79.68
2022-08-09T02:20:26.214Z,80.08
2022-08-09T02:23:14.010Z,80.07
2022-08-09T02:25:52.870Z,79.94
2022-08-09T02:28:34.286Z,79.67
2022-08-09T02:31:08.826Z,79.53
2022-08-09T02:34:06.736Z,80.29
2022-08-09T02:36:33.870Z,81.02
2022-08-09T02:39:04.895Z,80.71
2022-08-09T02:41:38.980Z,80.64
2022-08-09T02:44:13.666Z,81.10
2022-08-09T02:47:00.919Z,80.88
2022-08-09T02:49:38.309Z,81.78
2022-08-09T02:52:07.789Z,81.12
2022-08-09T02:54:51.124Z,81.34
2022-08-09T02:57:23.654Z,81.96
2022-08-09T03:00:11.430Z,82.08
2022-08-09T03:02:39.881Z,82.61
2022-08-09T03:05:26.492Z,82.09
2022-08-09T03:07:55.706Z,81.68
2022-08-09T03:10:24.302Z,81.73
2022-08-09T03:12:53.164Z,81.79
2022-08-09T03:15:22.987Z,82.43
2022-08-09T03:17:58.038Z,82.23
2022-08-09T03:20:29.447Z,82.81
2022-08-09T03:22:58.312Z,82.94
2022-08-09T03:25:57.670Z,83.27
2022-08-09T03:28:17.801Z,83.71
2022-08-09T03:30:45.906Z,82.65
2022-08-09T03:33:19.100Z,82.68
2022-08-09T03:36:12.258Z,83.73
2022-08-09T03:38:37.286Z,83.49
2022-08-09T03:41:08.815Z,83.80
2022-08-09T03:43:36.473Z,84.45
2022-08-09T03:46:19.848Z,83.52
2022-08-09T03:48:55.020Z,84.10
2022-08-09T03:51:56.365Z,83.84
2022-08-09T03:54:14.689Z,83.82
2022-08-09T03:56:41.992Z,83.39
2022-08-09T03:59:17.064Z,83.41
2022-08-09T04:01:49.668Z,83.18
2022-08-09T04:04:17.418Z,83.82
2022-08-09T04:06:49.191Z,84.73
2022-08-09T04:09:44.339Z,84.69
2022-08-09T04:12:11.909Z,86.07
2022-08-09T04:15:01.902Z,85.36
2022-08-09T04:17:29.773Z,84.89
2022-08-09T04:19:56.642Z,84.72
2022-08-09T04:22:23.431Z,83.98
2022-08-09T04:24:49.947Z,84.00
2022-08-09T04:27:17.127Z,84.26
2022-08-09T04:29:50.111Z,83.75
2022-08-09T04:32:23.684Z,83.33
2022-08-09T04:35:04.995Z,83.54
2022-08-09T04:37:45.601Z,83.59
2022-08-09T04:40:19.043Z,83.33
2022-08-09T04:42:48.530Z,82.89
2022-08-09T04:45:16.630Z,82.92
2022-08-09T04:47:59.374Z,83.10
2022-08-09T04:50:33.609Z,82.54
2022-08-09T04:53:02.180Z,82.78
2022-08-09T04:55:40.585Z,82.39
2022-08-09T04:58:15.199Z,81.72
2022-08-09T05:00:43.028Z,81.06
2022-08-09T05:03:13.395Z,80.60
2022-08-09T05:06:04.346Z,80.47
2022-08-09T05:08:34.765Z,80.53
2022-08-09T05:11:02.419Z,78.98
2022-08-09T05:13:29.170Z,78.11
2022-08-09T05:16:00.124Z,77.09
2022-08-09T05:18:55.057Z,76.30
2022-08-09T05:21:23.346Z,75.16
2022-08-09T05:23:59.516Z,74.73
2022-08-09T05:26:45.375Z,73.17
2022-08-09T05:29:21.902Z,72.06
2022-08-09T05:31:57.380Z,71.42
2022-08-09T05:34:31.043Z,69.54
2022-08-09T05:37:06.104Z,67.38
2022-08-09T05:39:42.595Z,67.67
2022-08-09T05:42:18.024Z,66.51
2022-08-09T05:44:52.533Z,65.62
2022-08-09T05:47:21.765Z,64.15
2022-08-09T05:50:25.101Z,63.83
2022-08-09T05:52:38.569Z,62.88
2022-08-09T05:55:07.311Z,62.59
2022-08-09T05:57:51.115Z,62.60
2022-08-09T06:00:22.112Z,62.21
2022-08-09T06:02:48.881Z,61.50
2022-08-09T06:05:16.232Z,61.34
2022-08-09T06:07:42.914Z,60.87
2022-08-09T06:10:15.930Z,59.78
2022-08-09T06:12:44.696Z,59.66
2022-08-09T06:15:17.302Z,58.68
2022-08-09T06:17:43.740Z,58.92
2022-08-09T06:20:13.356Z,58.87
2022-08-09T06:22:45.753Z,58.28
2022-08-09T06:25:16.160Z,57.99
2022-08-09T06:27:51.330Z,58.88
2022-08-09T06:30:18.473Z,57.00
2022-08-09T06:33:00.708Z,57.10
2022-08-09T06:35:56.468Z,57.03
2022-08-09T06:38:19.249Z,56.93
2022-08-09T06:40:45.870Z,55.98
2022-08-09T06:43:13.548Z,56.37
2022-08-09T06:46:06.056Z,55.96
2022-08-09T06:48:30.964Z,55.10
2022-08-09T06:50:59.819Z,54.16
2022-08-09T06:53:26.400Z,53.14
2022-08-09T06:55:53.249Z,53.50
2022-08-09T07:00:46.446Z,53.94
2022-08-09T07:01:07.957Z,53.24
2022-08-09T07:03:39.654Z,52.47
2022-08-09T07:06:18.908Z,52.26
2022-08-09T07:08:46.668Z,53.21
2022-08-09T07:11:17.650Z,54.10
2022-08-09T07:14:04.813Z,53.45
2022-08-09T07:16:41.316Z,53.47
2022-08-09T07:19:15.345Z,53.40
2022-08-09T07:21:55.324Z,52.43
2022-08-09T07:24:32.792Z,52.44
2022-08-09T07:27:11.072Z,52.14
2022-08-09T07:29:56.953Z,51.65
2022-08-09T07:32:32.291Z,50.60
2022-08-09T07:35:00.999Z,50.68
2022-08-09T07:37:29.540Z,51.05
2022-08-09T07:39:56.125Z,50.66
2022-08-09T07:42:32.441Z,50.02
2022-08-09T07:45:06.436Z,48.74
2022-08-09T07:48:00.570Z,48.89
2022-08-09T07:50:33.055Z,49.40
2022-08-09T07:53:03.042Z,47.76
2022-08-09T07:55:41.651Z,47.38
2022-08-09T07:58:17.920Z,46.78
2022-08-09T08:00:55.947Z,47.35
2022-08-09T08:03:31.589Z,47.05
2022-08-09T08:05:58.596Z,46.52
2022-08-09T08:09:01.779Z,46.21
2022-08-09T08:12:10.009Z,46.29
2022-08-09T08:13:58.886Z,46.79
2022-08-09T08:16:31.602Z,46.35
2022-08-09T08:18:59.378Z,46.95
2022-08-09T08:21:26.671Z,46.19
2022-08-09T08:23:55.603Z,45.45
2022-08-09T08:26:26.639Z,45.18
2022-08-09T08:29:08.973Z,45.27
2022-08-09T08:32:02.766Z,45.10
2022-08-09T08:34:25.244Z,44.35
2022-08-09T08:36:52.473Z,44.36
2022-08-09T08:39:19.062Z,43.92
2022-08-09T08:41:51.893Z,43.63
2022-08-09T08:44:26.971Z,43.14
2022-08-09T08:46:59.644Z,43.14
2022-08-09T08:49:38.669Z,42.58
2022-08-09T08:52:34.943Z,43.20
2022-08-09T08:55:03.979Z,43.24
2022-08-09T08:57:35.265Z,43.47
2022-08-09T09:00:08.237Z,43.94
2022-08-09T09:02:49.991Z,43.41
2022-08-09T09:05:57.636Z,42.18
2022-08-09T09:08:29.934Z,42.66
2022-08-09T09:11:01.283Z,42.39
2022-08-09T09:13:41.901Z,42.38
2022-08-09T09:16:15.423Z,41.08
2022-08-09T09:18:48.055Z,41.95
2022-08-09T09:21:14.778Z,41.55
2022-08-09T09:23:49.823Z,40.77
2022-08-09T09:26:25.977Z,40.35
2022-08-09T09:29:03.380Z,40.58
2022-08-09T09:32:06.542Z,41.64
2022-08-09T09:34:23.135Z,41.22
2022-08-09T09:36:53.703Z,40.58
2022-08-09T09:39:23.454Z,39.35
2022-08-09T09:41:54.213Z,39.65
2022-08-09T09:44:33.899Z,39.86
2022-08-09T09:47:21.598Z,40.08
2022-08-09T09:50:15.334Z,40.28
2022-08-09T09:52:53.735Z,40.56
2022-08-09T09:55:27.942Z,40.24
2022-08-09T09:58:15.633Z,38.03
2022-08-09T10:00:58.850Z,38.45
2022-08-09T10:03:43.868Z,38.29
2022-08-09T10:06:12.543Z,38.02
2022-08-09T10:08:54.385Z,38.73
2022-08-09T10:12:12.020Z,39.19
2022-08-09T10:14:27.756Z,38.12
2022-08-09T10:17:11.564Z,37.87
2022-08-09T10:19:45.738Z,38.35
2022-08-09T10:22:12.781Z,38.77
2022-08-09T10:24:40.856Z,37.30
2022-08-09T10:27:17.303Z,37.49
2022-08-09T10:30:43.846Z,36.79
2022-08-09T10:32:42.743Z,36.35
2022-08-09T10:35:11.120Z,36.09
2022-08-09T10:37:39.931Z,35.25
2022-08-09T10:40:12.238Z,36.12
2022-08-09T10:42:55.790Z,36.28
2022-08-09T10:45:23.457Z,36.02
2022-08-09T10:48:30.634Z,36.01
2022-08-09T10:51:12.281Z,35.04
2022-08-09T10:54:04.955Z,35.67
2022-08-09T10:56:34.513Z,35.86
2022-08-09T10:59:31.039Z,36.32
2022-08-09T11:03:15.335Z,36.22
2022-08-09T11:05:13.182Z,35.10
2022-08-09T11:07:56.934Z,35.48
2022-08-09T11:10:56.607Z,36.01
2022-08-09T11:13:50.607Z,34.96
2022-08-09T11:16:40.995Z,33.62
2022-08-09T11:19:10.463Z,33.63
2022-08-09T11:21:57.390Z,34.47
2022-08-09T11:24:57.965Z,34.82
2022-08-09T11:28:02.792Z,34.75
2022-08-09T11:30:32.299Z,33.85
2022-08-09T11:33:11.669Z,33.92
2022-08-09T11:35:50.001Z,34.63
2022-08-09T11:38:32.654Z,35.16
2022-08-09T11:41:13.713Z,34.62
2022-08-09T11:43:43.397Z,34.71
2022-08-09T11:46:10.551Z,35.02
2022-08-09T11:48:52.209Z,35.36
2022-08-09T11:53:00.959Z,35.17
2022-08-09T11:54:13.675Z,35.27
2022-08-09T11:56:42.398Z,34.33
2022-08-09T11:59:30.292Z,34.66
2022-08-09T12:02:34.565Z,34.96
2022-08-09T12:04:47.073Z,35.02
2022-08-09T12:07:14.401Z,34.88
2022-08-09T12:09:51.043Z,35.07
2022-08-09T12:12:20.426Z,34.45
2022-08-09T12:15:07.186Z,33.69
2022-08-09T12:17:44.434Z,33.50
2022-08-09T12:20:22.246Z,33.78
2022-08-09T12:23:00.018Z,33.37
2022-08-09T12:29:11.489Z,35.46
2022-08-09T12:31:31.109Z,35.71
2022-08-09T12:34:13.455Z,35.32
2022-08-09T12:36:52.178Z,35.20
2022-08-09T12:39:26.021Z,34.73
2022-08-09T12:41:54.436Z,34.44
2022-08-09T12:44:24.558Z,34.46
2022-08-09T12:46:51.541Z,35.03
2022-08-09T12:49:21.073Z,35.58
2022-08-09T12:52:01.315Z,35.81
2022-08-09T12:54:29.744Z,36.20
2022-08-09T12:56:58.705Z,35.66
2022-08-09T12:59:57.721Z,35.91
2022-08-09T13:02:11.978Z,35.99
2022-08-09T13:04:41.722Z,35.28
2022-08-09T13:07:16.867Z,34.96
2022-08-09T13:09:55.381Z,33.97
2022-08-09T13:12:27.151Z,34.11
2022-08-09T13:15:04.543Z,34.02
2022-08-09T13:18:02.861Z,36.14
2022-08-09T13:20:37.194Z,36.96
2022-08-09T13:24:11.829Z,37.83
2022-08-09T13:25:54.758Z,38.71
2022-08-09T13:28:33.817Z,39.09
2022-08-09T13:32:17.165Z,39.54
2022-08-09T13:33:58.038Z,40.07
2022-08-09T13:36:41.468Z,38.67
2022-08-09T13:39:34.355Z,37.98
2022-08-09T13:42:11.995Z,38.09
2022-08-09T13:44:42.063Z,38.36
2022-08-09T13:47:27.705Z,37.60
2022-08-09T13:50:04.321Z,37.41
2022-08-09T13:52:39.590Z,38.03
2022-08-09T13:55:13.672Z,38.83
2022-08-09T13:57:55.992Z,40.96
2022-08-09T14:00:28.297Z,39.61
2022-08-09T14:03:03.485Z,39.71
2022-08-09T14:06:00.291Z,38.80
2022-08-09T14:08:29.827Z,38.45
2022-08-09T14:10:56.798Z,38.06
2022-08-09T14:13:28.205Z,37.73
2022-08-09T14:16:16.794Z,38.25
2022-08-09T14:18:49.132Z,38.42
2022-08-09T14:21:20.058Z,38.96
2022-08-09T14:23:54.708Z,38.99
2022-08-09T14:26:25.380Z,38.92
2022-08-09T14:28:59.014Z,39.59
2022-08-09T14:31:36.425Z,39.71
2022-08-09T14:34:13.099Z,39.74
2022-08-09T14:36:44.902Z,39.37
2022-08-09T14:39:11.617Z,38.93
2022-08-09T14:41:41.851Z,39.57
2022-08-09T14:44:09.572Z,39.53
2022-08-09T14:47:04.633Z,39.82
2022-08-09T14:49:26.307Z,39.98
2022-08-09T14:51:58.782Z,40.35
2022-08-09T14:54:28.162Z,40.66
2022-08-09T14:56:58.867Z,40.93
2022-08-09T14:59:28.537Z,41.18
2022-08-09T15:01:55.848Z,40.66
2022-08-09T15:04:23.567Z,40.71
2022-08-09T15:06:51.373Z,40.72
2022-08-09T15:09:52.041Z,40.12
2022-08-09T15:12:07.762Z,40.00
2022-08-09T15:14:38.152Z,40.52
2022-08-09T15:17:08.920Z,40.07
2022-08-09T15:19:36.619Z,41.03
2022-08-09T15:22:04.091Z,40.59
2022-08-09T15:24:32.425Z,41.12
2022-08-09T15:26:59.418Z,41.33
2022-08-09T15:30:58.205Z,40.83
2022-08-09T15:32:28.448Z,41.56
2022-08-09T15:34:59.894Z,41.75
2022-08-09T15:37:56.943Z,41.29
2022-08-09T15:40:32.187Z,41.49
2022-08-09T15:43:01.891Z,41.36
2022-08-09T15:45:51.953Z,41.34
2022-08-09T15:48:28.821Z,41.18
2022-08-09T15:50:56.709Z,40.79
2022-08-09T15:54:05.834Z,40.94
2022-08-09T15:56:23.432Z,40.74
2022-08-09T15:58:57.052Z,41.41
2022-08-09T16:01:23.612Z,41.08
2022-08-09T16:03:51.203Z,40.85
2022-08-09T16:06:32.361Z,41.24
2022-08-09T16:09:04.879Z,41.48
2022-08-09T16:11:33.335Z,41.11
2022-08-09T16:14:05.508Z,41.04
2022-08-09T16:16:37.829Z,41.56
2022-08-09T16:19:09.674Z,41.92
2022-08-09T16:21:37.335Z,41.28
2022-08-09T16:24:13.076Z,41.49
2022-08-09T16:26:56.765Z,41.58
2022-08-09T16:29:37.948Z,41.58
2022-08-09T16:32:33.443Z,41.40
2022-08-09T16:34:58.384Z,41.39
2022-08-09T16:37:55.658Z,41.82
2022-08-09T16:40:29.963Z,42.53
2022-08-09T16:43:02.491Z,42.13
2022-08-09T16:45:29.167Z,41.92
2022-08-09T16:48:39.116Z,42.16
2022-08-09T16:50:59.071Z,42.00
2022-08-09T16:53:26.846Z,42.44
2022-08-09T16:56:03.656Z,42.99
2022-08-09T16:58:36.784Z,42.44
2022-08-09T17:01:04.603Z,42.37
2022-08-09T17:03:31.350Z,42.64
2022-08-09T17:06:06.656Z,42.69
2022-08-09T17:08:45.796Z,43.14
2022-08-09T17:11:41.205Z,42.87
2022-08-09T17:14:16.004Z,42.89
2022-08-09T17:16:56.073Z,43.05
2022-08-09T17:19:22.527Z,43.13
2022-08-09T17:21:55.575Z,43.16
2022-08-09T17:24:27.960Z,43.04
2022-08-09T17:26:56.986Z,43.00
2022-08-09T17:29:25.245Z,43.09
2022-08-09T17:32:00.220Z,43.44
2022-08-09T17:35:04.142Z,43.74
2022-08-09T17:37:19.907Z,44.42
2022-08-09T17:39:52.666Z,44.19
2022-08-09T17:42:40.791Z,44.75
2022-08-09T17:45:15.985Z,44.92
2022-08-09T17:47:55.634Z,44.40
2022-08-09T17:50:36.841Z,44.57
2022-08-09T17:53:10.328Z,44.71
2022-08-09T17:55:49.525Z,44.78
2022-08-09T17:58:19.008Z,45.02
2022-08-09T18:00:47.995Z,45.59
2022-08-09T18:03:15.210Z,45.41
2022-08-09T18:05:44.729Z,45.32
2022-08-09T18:08:13.377Z,45.39
2022-08-09T18:10:40.221Z,45.80
2022-08-09T18:13:38.993Z,45.80
2022-08-09T18:16:08.849Z,45.72
2022-08-09T18:18:36.350Z,45.57
2022-08-09T18:21:23.810Z,45.82
2022-08-09T18:24:09.944Z,45.79
2022-08-09T18:26:46.290Z,46.53
2022-08-09T18:30:37.883Z,47.15
2022-08-09T18:32:05.155Z,47.11
2022-08-09T18:34:35.117Z,47.24
2022-08-09T18:37:10.482Z,47.74
2022-08-09T18:39:53.272Z,47.93
2022-08-09T18:42:19.852Z,48.44
2022-08-09T18:44:47.903Z,48.67
2022-08-09T18:47:17.498Z,48.76
2022-08-09T18:49:47.309Z,49.04
2022-08-09T18:52:15.859Z,48.54
2022-08-09T18:54:52.547Z,49.20
2022-08-09T18:57:22.190Z,49.28
2022-08-09T18:59:55.587Z,49.61
2022-08-09T19:02:30.759Z,50.09
2022-08-09T19:05:04.208Z,50.29
2022-08-09T19:08:04.921Z,50.56
2022-08-09T19:10:37.045Z,51.24
2022-08-09T19:13:20.448Z,51.19
2022-08-09T19:15:51.342Z,51.81
2022-08-09T19:18:33.731Z,52.30
2022-08-09T19:21:05.600Z,52.61
2022-08-09T19:24:32.522Z,52.50
2022-08-09T19:26:22.457Z,52.59
2022-08-09T19:29:01.249Z,53.09
2022-08-09T19:31:30.438Z,53.12
2022-08-09T19:34:21.262Z,53.67
2022-08-09T19:36:53.365Z,54.48
2022-08-09T19:39:43.744Z,54.37
2022-08-09T19:42:08.272Z,54.68
2022-08-09T19:44:35.424Z,54.63
2022-08-09T19:47:02.569Z,55.13
2022-08-09T19:50:08.756Z,55.57
2022-08-09T19:52:25.698Z,55.44
2022-08-09T19:54:52.788Z,55.73
2022-08-09T19:57:19.591Z,55.56
2022-08-09T20:00:05.574Z,55.78
2022-08-09T20:04:09.977Z,55.42
2022-08-09T20:05:23.688Z,55.64
2022-08-09T20:08:00.230Z,55.91
2022-08-09T20:10:36.865Z,55.83
2022-08-09T20:13:06.225Z,55.62
2022-08-09T20:16:36.762Z,56.14
2022-08-09T20:18:20.343Z,56.01
2022-08-09T20:20:50.511Z,56.07
2022-08-09T20:23:19.429Z,56.09
2022-08-09T20:25:52.253Z,56.63
2022-08-09T20:28:32.027Z,56.47
2022-08-09T20:31:10.738Z,56.79
2022-08-09T20:33:41.038Z,56.65
2022-08-09T20:36:10.964Z,57.28
2022-08-09T20:41:35.033Z,58.09
2022-08-09T20:44:04.977Z,58.10
2022-08-09T20:46:44.624Z,58.09
2022-08-09T20:49:13.112Z,58.63
2022-08-09T20:51:41.991Z,58.56
2022-08-09T20:54:12.929Z,58.74
2022-08-09T20:56:43.613Z,58.58
2022-08-09T20:59:16.854Z,58.90
2022-08-09T21:01:50.546Z,58.74
2022-08-09T21:05:53.363Z,58.93
2022-08-09T21:07:10.924Z,58.48
2022-08-09T21:09:42.053Z,58.63
2022-08-09T21:14:48.369Z,58.50
2022-08-09T21:18:23.636Z,59.00
2022-08-09T21:20:19.564Z,58.40
2022-08-09T21:22:52.447Z,58.67
2022-08-09T21:25:39.117Z,58.40
2022-08-09T21:28:12.245Z,59.07
2022-08-09T21:30:42.939Z,58.65
2022-08-09T21:33:10.419Z,58.35
2022-08-09T21:35:41.006Z,58.95
2022-08-09T21:38:18.975Z,59.28
2022-08-09T21:40:58.045Z,59.29
2022-08-09T21:43:46.690Z,59.67
2022-08-09T21:46:12.031Z,59.53
2022-08-09T21:48:42.456Z,59.46
2022-08-09T21:51:14.053Z,59.80
2022-08-09T21:53:41.476Z,59.50
2022-08-09T21:56:15.107Z,59.45
2022-08-09T21:58:54.720Z,59.46
2022-08-09T22:01:44.985Z,59.99
2022-08-09T22:04:08.028Z,60.02
2022-08-09T22:06:34.469Z,60.51
2022-08-09T22:09:01.457Z,60.29
2022-08-09T22:12:06.034Z,60.38
2022-08-09T22:14:14.995Z,60.61
2022-08-09T22:16:41.563Z,61.02
2022-08-09T22:19:59.163Z,61.17
2022-08-09T22:21:55.190Z,61.05
2022-08-09T22:24:24.907Z,61.53
2022-08-09T22:26:52.387Z,61.80
2022-08-09T22:29:19.813Z,61.51
2022-08-09T22:31:56.347Z,61.70
2022-08-09T22:34:26.319Z,62.45
2022-08-09T22:36:54.824Z,62.56
2022-08-09T22:39:55.978Z,62.54
2022-08-09T22:42:21.364Z,62.38
2022-08-09T22:45:02.273Z,62.13
2022-08-09T22:48:14.137Z,62.53
2022-08-09T22:50:25.669Z,62.85
2022-08-09T22:52:54.687Z,62.21
2022-08-09T22:55:24.345Z,62.65
2022-08-09T22:57:59.887Z,62.88
2022-08-09T23:00:29.265Z,63.80
2022-08-09T23:02:56.277Z,64.44
2022-08-09T23:05:22.866Z,65.07
2022-08-09T23:08:22.207Z,65.56
2022-08-09T23:10:50.405Z,66.26
2022-08-09T23:13:16.875Z,67.18
2022-08-09T23:15:43.381Z,67.44
2022-08-09T23:18:29.816Z,67.17
2022-08-09T23:20:56.231Z,67.45
2022-08-09T23:23:22.710Z,68.23
2022-08-09T23:25:49.356Z,67.41
2022-08-09T23:28:16.274Z,67.74
2022-08-09T23:30:51.633Z,67.32
2022-08-09T23:33:20.643Z,67.42
2022-08-09T23:36:04.940Z,68.24
2022-08-09T23:38:33.971Z,68.80
2022-08-09T23:41:01.698Z,69.19
2022-08-09T23:43:28.155Z,69.38
2022-08-09T23:45:54.601Z,70.22
2022-08-09T23:48:21.079Z,70.23
2022-08-09T23:50:47.578Z,70.23
2022-08-09T23:53:14.018Z,70.87
2022-08-09T23:55:46.225Z,71.20
2022-08-09T23:58:25.790Z,70.63
